sensor_id;sensor_type;location;lat;lon;timestamp;temperature;humidity
11284;DHT22;5698;47.332;11.180;2023-07-29T00:00:42;13.20;99.90
11284;DHT22;5698;47.332;11.180;2023-07-29T00:03:09;13.20;99.90
11284;DHT22;5698;47.332;11.180;2023-07-29T00:05:36;13.20;99.90
11284;DHT22;5698;47.332;11.180;2023-07-29T00:08:04;13.20;99.90
11284;DHT22;5698;47.332;11.180;2023-07-29T00:10:31;13.20;99.90
11284;DHT22;5698;47.332;11.180;2023-07-29T00:12:58;13.20;99.90
11284;DHT22;5698;47.332;11.180;2023-07-29T00:15:27;13.10;99.90
11284;DHT22;5698;47.332;11.180;2023-07-29T00:17:54;13.10;99.90
11284;DHT22;5698;47.332;11.180;2023-07-29T00:20:21;13.10;99.90
11284;DHT22;5698;47.332;11.180;2023-07-29T00:22:48;13.20;99.90
11284;DHT22;5698;47.332;11.180;2023-07-29T00:25:15;13.20;99.90
11284;DHT22;5698;47.332;11.180;2023-07-29T00:27:42;13.20;99.90
11284;DHT22;5698;47.332;11.180;2023-07-29T00:30:10;13.20;99.90
11284;DHT22;5698;47.332;11.180;2023-07-29T00:32:38;13.20;99.90
11284;DHT22;5698;47.332;11.180;2023-07-29T00:35:06;13.20;99.90
11284;DHT22;5698;47.332;11.180;2023-07-29T00:37:33;13.20;99.90
11284;DHT22;5698;47.332;11.180;2023-07-29T00:40:01;13.20;99.90
11284;DHT22;5698;47.332;11.180;2023-07-29T00:42:28;13.30;99.90
11284;DHT22;5698;47.332;11.180;2023-07-29T00:44:55;13.30;99.90
11284;DHT22;5698;47.332;11.180;2023-07-29T00:47:22;13.30;99.90
11284;DHT22;5698;47.332;11.180;2023-07-29T00:49:52;13.20;99.90
11284;DHT22;5698;47.332;11.180;2023-07-29T00:52:19;13.30;99.90
11284;DHT22;5698;47.332;11.180;2023-07-29T00:54:46;13.30;99.90
11284;DHT22;5698;47.332;11.180;2023-07-29T00:57:13;13.30;99.90
11284;DHT22;5698;47.332;11.180;2023-07-29T00:59:42;13.30;99.90
11284;DHT22;5698;47.332;11.180;2023-07-29T01:02:09;13.30;99.90
11284;DHT22;5698;47.332;11.180;2023-07-29T01:04:36;13.20;99.90
11284;DHT22;5698;47.332;11.180;2023-07-29T01:07:11;13.20;99.90
11284;DHT22;5698;47.332;11.180;2023-07-29T01:09:46;13.20;99.90
11284;DHT22;5698;47.332;11.180;2023-07-29T01:12:21;13.10;99.90
11284;DHT22;5698;47.332;11.180;2023-07-29T01:14:57;13.10;99.90
11284;DHT22;5698;47.332;11.180;2023-07-29T01:17:32;13.00;99.90
11284;DHT22;5698;47.332;11.180;2023-07-29T01:20:01;12.90;99.90
11284;DHT22;5698;47.332;11.180;2023-07-29T01:22:34;12.80;99.90
11284;DHT22;5698;47.332;11.180;2023-07-29T01:25:04;12.80;99.90
11284;DHT22;5698;47.332;11.180;2023-07-29T01:27:31;12.80;99.90
11284;DHT22;5698;47.332;11.180;2023-07-29T01:29:59;12.80;99.90
11284;DHT22;5698;47.332;11.180;2023-07-29T01:32:35;12.80;99.90
11284;DHT22;5698;47.332;11.180;2023-07-29T01:35:13;12.80;99.90
11284;DHT22;5698;47.332;11.180;2023-07-29T01:37:43;12.70;99.90
11284;DHT22;5698;47.332;11.180;2023-07-29T01:40:13;12.80;99.90
11284;DHT22;5698;47.332;11.180;2023-07-29T01:42:40;12.80;99.90
11284;DHT22;5698;47.332;11.180;2023-07-29T01:45:07;12.80;99.90
11284;DHT22;5698;47.332;11.180;2023-07-29T01:47:34;12.80;99.90
11284;DHT22;5698;47.332;11.180;2023-07-29T01:50:07;12.70;99.90
11284;DHT22;5698;47.332;11.180;2023-07-29T01:52:34;12.70;99.90
11284;DHT22;5698;47.332;11.180;2023-07-29T01:55:01;12.70;99.90
11284;DHT22;5698;47.332;11.180;2023-07-29T01:57:29;12.70;99.90
11284;DHT22;5698;47.332;11.180;2023-07-29T01:59:56;12.70;99.90
11284;DHT22;5698;47.332;11.180;2023-07-29T02:02:23;12.70;99.90
11284;DHT22;5698;47.332;11.180;2023-07-29T02:04:50;12.70;99.90
11284;DHT22;5698;47.332;11.180;2023-07-29T02:07:18;12.60;99.90
11284;DHT22;5698;47.332;11.180;2023-07-29T02:09:45;12.60;99.90
11284;DHT22;5698;47.332;11.180;2023-07-29T02:12:12;12.60;99.90
11284;DHT22;5698;47.332;11.180;2023-07-29T02:14:40;12.60;99.90
11284;DHT22;5698;47.332;11.180;2023-07-29T02:17:07;12.60;99.90
11284;DHT22;5698;47.332;11.180;2023-07-29T02:19:34;12.60;99.90
11284;DHT22;5698;47.332;11.180;2023-07-29T02:22:01;12.60;99.90
11284;DHT22;5698;47.332;11.180;2023-07-29T02:24:29;12.60;99.90
11284;DHT22;5698;47.332;11.180;2023-07-29T02:26:56;12.60;99.90
11284;DHT22;5698;47.332;11.180;2023-07-29T02:29:23;12.50;99.90
11284;DHT22;5698;47.332;11.180;2023-07-29T02:31:52;12.50;99.90
11284;DHT22;5698;47.332;11.180;2023-07-29T02:34:19;12.50;99.90
11284;DHT22;5698;47.332;11.180;2023-07-29T02:36:46;12.50;99.90
11284;DHT22;5698;47.332;11.180;2023-07-29T02:39:13;12.50;99.90
11284;DHT22;5698;47.332;11.180;2023-07-29T02:41:39;12.50;99.90
11284;DHT22;5698;47.332;11.180;2023-07-29T02:44:06;12.50;99.90
11284;DHT22;5698;47.332;11.180;2023-07-29T02:46:33;12.50;99.90
11284;DHT22;5698;47.332;11.180;2023-07-29T02:49:03;12.50;99.90
11284;DHT22;5698;47.332;11.180;2023-07-29T02:51:30;12.50;99.90
11284;DHT22;5698;47.332;11.180;2023-07-29T02:53:57;12.50;99.90
11284;DHT22;5698;47.332;11.180;2023-07-29T02:56:24;12.50;99.90
11284;DHT22;5698;47.332;11.180;2023-07-29T02:58:52;12.60;99.90
11284;DHT22;5698;47.332;11.180;2023-07-29T03:01:19;12.60;99.90
11284;DHT22;5698;47.332;11.180;2023-07-29T03:03:46;12.60;99.90
11284;DHT22;5698;47.332;11.180;2023-07-29T03:06:15;12.60;99.90
11284;DHT22;5698;47.332;11.180;2023-07-29T03:08:42;12.60;99.90
11284;DHT22;5698;47.332;11.180;2023-07-29T03:11:10;12.60;99.90
11284;DHT22;5698;47.332;11.180;2023-07-29T03:13:37;12.60;99.90
11284;DHT22;5698;47.332;11.180;2023-07-29T03:16:07;12.60;99.90
11284;DHT22;5698;47.332;11.180;2023-07-29T03:18:34;12.60;99.90
11284;DHT22;5698;47.332;11.180;2023-07-29T03:21:02;12.60;99.90
11284;DHT22;5698;47.332;11.180;2023-07-29T03:23:31;12.60;99.90
11284;DHT22;5698;47.332;11.180;2023-07-29T03:25:59;12.60;99.90
11284;DHT22;5698;47.332;11.180;2023-07-29T03:28:27;12.60;99.90
11284;DHT22;5698;47.332;11.180;2023-07-29T03:30:54;12.60;99.90
11284;DHT22;5698;47.332;11.180;2023-07-29T03:33:22;12.60;99.90
11284;DHT22;5698;47.332;11.180;2023-07-29T03:35:49;12.50;99.90
11284;DHT22;5698;47.332;11.180;2023-07-29T03:38:16;12.50;99.90
11284;DHT22;5698;47.332;11.180;2023-07-29T03:40:44;12.50;99.90
11284;DHT22;5698;47.332;11.180;2023-07-29T03:43:11;12.50;99.90
11284;DHT22;5698;47.332;11.180;2023-07-29T03:45:39;12.40;99.90
11284;DHT22;5698;47.332;11.180;2023-07-29T03:48:07;12.30;99.90
11284;DHT22;5698;47.332;11.180;2023-07-29T03:50:35;12.30;99.90
11284;DHT22;5698;47.332;11.180;2023-07-29T03:53:02;12.40;99.90
11284;DHT22;5698;47.332;11.180;2023-07-29T03:55:29;12.40;99.90
11284;DHT22;5698;47.332;11.180;2023-07-29T03:57:58;12.40;99.90
11284;DHT22;5698;47.332;11.180;2023-07-29T04:00:25;12.40;99.90
11284;DHT22;5698;47.332;11.180;2023-07-29T04:02:52;12.50;99.90
11284;DHT22;5698;47.332;11.180;2023-07-29T04:05:19;12.50;99.90
11284;DHT22;5698;47.332;11.180;2023-07-29T04:07:46;12.50;99.90
11284;DHT22;5698;47.332;11.180;2023-07-29T04:10:13;12.50;99.90
11284;DHT22;5698;47.332;11.180;2023-07-29T04:12:40;12.50;99.90
11284;DHT22;5698;47.332;11.180;2023-07-29T04:15:09;12.50;99.90
11284;DHT22;5698;47.332;11.180;2023-07-29T04:17:36;12.50;99.90
11284;DHT22;5698;47.332;11.180;2023-07-29T04:20:04;12.50;99.90
11284;DHT22;5698;47.332;11.180;2023-07-29T04:22:31;12.50;99.90
11284;DHT22;5698;47.332;11.180;2023-07-29T04:24:58;12.40;99.90
11284;DHT22;5698;47.332;11.180;2023-07-29T04:27:25;12.50;99.90
11284;DHT22;5698;47.332;11.180;2023-07-29T04:29:51;12.50;99.90
11284;DHT22;5698;47.332;11.180;2023-07-29T04:32:20;12.50;99.90
11284;DHT22;5698;47.332;11.180;2023-07-29T04:34:47;12.50;99.90
11284;DHT22;5698;47.332;11.180;2023-07-29T04:37:14;12.60;99.90
11284;DHT22;5698;47.332;11.180;2023-07-29T04:39:41;12.60;99.90
11284;DHT22;5698;47.332;11.180;2023-07-29T04:42:08;12.60;99.90
11284;DHT22;5698;47.332;11.180;2023-07-29T04:44:35;12.70;99.90
11284;DHT22;5698;47.332;11.180;2023-07-29T04:47:02;12.70;99.90
11284;DHT22;5698;47.332;11.180;2023-07-29T04:49:30;12.80;99.90
11284;DHT22;5698;47.332;11.180;2023-07-29T04:51:57;12.80;99.90
11284;DHT22;5698;47.332;11.180;2023-07-29T04:54:24;12.90;99.90
11284;DHT22;5698;47.332;11.180;2023-07-29T04:56:51;12.90;99.90
11284;DHT22;5698;47.332;11.180;2023-07-29T04:59:18;12.90;99.90
11284;DHT22;5698;47.332;11.180;2023-07-29T05:01:45;12.90;99.90
11284;DHT22;5698;47.332;11.180;2023-07-29T05:04:12;12.90;99.90
11284;DHT22;5698;47.332;11.180;2023-07-29T05:06:41;12.90;99.90
11284;DHT22;5698;47.332;11.180;2023-07-29T05:09:18;12.90;99.90
11284;DHT22;5698;47.332;11.180;2023-07-29T05:11:47;12.90;99.90
11284;DHT22;5698;47.332;11.180;2023-07-29T05:14:15;13.00;99.90
11284;DHT22;5698;47.332;11.180;2023-07-29T05:16:42;13.00;99.90
11284;DHT22;5698;47.332;11.180;2023-07-29T05:19:09;13.00;99.90
11284;DHT22;5698;47.332;11.180;2023-07-29T05:21:37;13.00;99.90
11284;DHT22;5698;47.332;11.180;2023-07-29T05:24:06;13.10;99.90
11284;DHT22;5698;47.332;11.180;2023-07-29T05:26:33;13.10;99.90
11284;DHT22;5698;47.332;11.180;2023-07-29T05:29:00;13.20;99.90
11284;DHT22;5698;47.332;11.180;2023-07-29T05:31:27;13.20;99.90
11284;DHT22;5698;47.332;11.180;2023-07-29T05:33:53;13.20;99.90
11284;DHT22;5698;47.332;11.180;2023-07-29T05:36:20;13.20;99.90
11284;DHT22;5698;47.332;11.180;2023-07-29T05:38:47;13.30;99.90
11284;DHT22;5698;47.332;11.180;2023-07-29T05:41:16;13.30;99.90
11284;DHT22;5698;47.332;11.180;2023-07-29T05:43:42;13.30;99.90
11284;DHT22;5698;47.332;11.180;2023-07-29T05:46:10;13.30;99.90
11284;DHT22;5698;47.332;11.180;2023-07-29T05:48:37;13.30;99.90
11284;DHT22;5698;47.332;11.180;2023-07-29T05:51:04;13.30;99.90
11284;DHT22;5698;47.332;11.180;2023-07-29T05:53:31;13.30;99.90
11284;DHT22;5698;47.332;11.180;2023-07-29T05:55:59;13.30;99.90
11284;DHT22;5698;47.332;11.180;2023-07-29T05:58:27;13.30;99.90
11284;DHT22;5698;47.332;11.180;2023-07-29T06:00:56;13.20;99.90
11284;DHT22;5698;47.332;11.180;2023-07-29T06:03:23;13.30;99.90
11284;DHT22;5698;47.332;11.180;2023-07-29T06:05:50;13.30;99.90
11284;DHT22;5698;47.332;11.180;2023-07-29T06:08:17;13.30;99.90
11284;DHT22;5698;47.332;11.180;2023-07-29T06:10:44;13.30;99.90
11284;DHT22;5698;47.332;11.180;2023-07-29T06:13:11;13.30;99.90
11284;DHT22;5698;47.332;11.180;2023-07-29T06:15:39;13.40;99.90
11284;DHT22;5698;47.332;11.180;2023-07-29T06:18:06;13.50;99.90
11284;DHT22;5698;47.332;11.180;2023-07-29T06:20:33;13.50;99.90
11284;DHT22;5698;47.332;11.180;2023-07-29T06:23:00;13.60;99.90
11284;DHT22;5698;47.332;11.180;2023-07-29T06:25:27;13.60;99.90
11284;DHT22;5698;47.332;11.180;2023-07-29T06:27:54;13.60;99.90
11284;DHT22;5698;47.332;11.180;2023-07-29T06:30:21;13.60;99.90
11284;DHT22;5698;47.332;11.180;2023-07-29T06:32:49;13.70;99.90
11284;DHT22;5698;47.332;11.180;2023-07-29T06:35:16;13.70;99.90
11284;DHT22;5698;47.332;11.180;2023-07-29T06:37:43;13.80;99.90
11284;DHT22;5698;47.332;11.180;2023-07-29T06:40:11;13.80;99.90
11284;DHT22;5698;47.332;11.180;2023-07-29T06:42:38;13.90;99.90
11284;DHT22;5698;47.332;11.180;2023-07-29T06:45:06;13.90;99.90
11284;DHT22;5698;47.332;11.180;2023-07-29T06:47:33;13.90;99.90
11284;DHT22;5698;47.332;11.180;2023-07-29T06:50:02;14.00;99.90
11284;DHT22;5698;47.332;11.180;2023-07-29T06:52:29;14.00;99.90
11284;DHT22;5698;47.332;11.180;2023-07-29T06:54:55;14.00;99.90
11284;DHT22;5698;47.332;11.180;2023-07-29T06:57:23;14.00;99.90
11284;DHT22;5698;47.332;11.180;2023-07-29T06:59:50;14.10;99.90
11284;DHT22;5698;47.332;11.180;2023-07-29T07:02:17;14.20;99.90
11284;DHT22;5698;47.332;11.180;2023-07-29T07:04:44;14.30;99.90
11284;DHT22;5698;47.332;11.180;2023-07-29T07:07:12;14.50;99.90
11284;DHT22;5698;47.332;11.180;2023-07-29T07:09:39;14.70;99.90
11284;DHT22;5698;47.332;11.180;2023-07-29T07:12:07;14.70;99.90
11284;DHT22;5698;47.332;11.180;2023-07-29T07:14:34;14.80;99.90
11284;DHT22;5698;47.332;11.180;2023-07-29T07:17:01;14.90;99.90
11284;DHT22;5698;47.332;11.180;2023-07-29T07:19:28;14.90;99.90
11284;DHT22;5698;47.332;11.180;2023-07-29T07:21:54;15.00;99.90
11284;DHT22;5698;47.332;11.180;2023-07-29T07:24:23;15.10;99.90
11284;DHT22;5698;47.332;11.180;2023-07-29T07:26:50;15.20;99.90
11284;DHT22;5698;47.332;11.180;2023-07-29T07:29:17;15.40;99.90
11284;DHT22;5698;47.332;11.180;2023-07-29T07:31:50;15.40;99.90
11284;DHT22;5698;47.332;11.180;2023-07-29T07:34:17;15.50;99.90
11284;DHT22;5698;47.332;11.180;2023-07-29T07:36:43;15.50;99.90
11284;DHT22;5698;47.332;11.180;2023-07-29T07:39:10;15.50;99.90
11284;DHT22;5698;47.332;11.180;2023-07-29T07:41:39;15.60;99.90
11284;DHT22;5698;47.332;11.180;2023-07-29T07:44:06;15.60;99.90
11284;DHT22;5698;47.332;11.180;2023-07-29T07:46:33;15.60;99.90
11284;DHT22;5698;47.332;11.180;2023-07-29T07:48:59;15.70;99.90
11284;DHT22;5698;47.332;11.180;2023-07-29T07:51:26;15.80;99.90
11284;DHT22;5698;47.332;11.180;2023-07-29T07:53:53;15.80;99.90
11284;DHT22;5698;47.332;11.180;2023-07-29T07:56:20;15.80;99.90
11284;DHT22;5698;47.332;11.180;2023-07-29T07:58:49;15.90;99.90
11284;DHT22;5698;47.332;11.180;2023-07-29T08:01:15;16.00;99.90
11284;DHT22;5698;47.332;11.180;2023-07-29T08:03:42;16.10;99.90
11284;DHT22;5698;47.332;11.180;2023-07-29T08:06:09;16.20;99.90
11284;DHT22;5698;47.332;11.180;2023-07-29T08:08:36;16.30;99.90
11284;DHT22;5698;47.332;11.180;2023-07-29T08:11:03;16.30;99.90
11284;DHT22;5698;47.332;11.180;2023-07-29T08:13:30;16.30;99.90
11284;DHT22;5698;47.332;11.180;2023-07-29T08:15:58;16.20;99.90
11284;DHT22;5698;47.332;11.180;2023-07-29T08:18:25;16.10;99.90
11284;DHT22;5698;47.332;11.180;2023-07-29T08:20:53;16.10;99.90
11284;DHT22;5698;47.332;11.180;2023-07-29T08:23:21;16.20;99.90
11284;DHT22;5698;47.332;11.180;2023-07-29T08:25:52;16.20;99.90
11284;DHT22;5698;47.332;11.180;2023-07-29T08:28:19;16.30;99.90
11284;DHT22;5698;47.332;11.180;2023-07-29T08:30:46;16.40;99.90
11284;DHT22;5698;47.332;11.180;2023-07-29T08:33:15;16.50;99.90
11284;DHT22;5698;47.332;11.180;2023-07-29T08:35:42;16.60;99.90
11284;DHT22;5698;47.332;11.180;2023-07-29T08:38:09;16.60;99.90
11284;DHT22;5698;47.332;11.180;2023-07-29T08:40:37;16.60;99.90
11284;DHT22;5698;47.332;11.180;2023-07-29T08:43:06;16.40;99.90
11284;DHT22;5698;47.332;11.180;2023-07-29T08:45:35;16.10;99.90
11284;DHT22;5698;47.332;11.180;2023-07-29T08:48:05;16.10;99.90
11284;DHT22;5698;47.332;11.180;2023-07-29T08:50:35;16.20;99.90
11284;DHT22;5698;47.332;11.180;2023-07-29T08:53:03;16.20;99.90
11284;DHT22;5698;47.332;11.180;2023-07-29T08:55:32;16.40;99.90
11284;DHT22;5698;47.332;11.180;2023-07-29T08:57:59;16.50;99.90
11284;DHT22;5698;47.332;11.180;2023-07-29T09:00:27;16.80;99.90
11284;DHT22;5698;47.332;11.180;2023-07-29T09:02:54;17.00;99.90
11284;DHT22;5698;47.332;11.180;2023-07-29T09:05:21;17.20;99.90
11284;DHT22;5698;47.332;11.180;2023-07-29T09:07:50;17.50;99.90
11284;DHT22;5698;47.332;11.180;2023-07-29T09:10:21;17.70;99.90
11284;DHT22;5698;47.332;11.180;2023-07-29T09:12:49;17.90;99.90
11284;DHT22;5698;47.332;11.180;2023-07-29T09:15:27;18.00;99.90
11284;DHT22;5698;47.332;11.180;2023-07-29T09:17:56;18.10;99.90
11284;DHT22;5698;47.332;11.180;2023-07-29T09:20:24;18.20;99.90
11284;DHT22;5698;47.332;11.180;2023-07-29T09:22:54;18.50;99.90
11284;DHT22;5698;47.332;11.180;2023-07-29T09:25:24;18.60;99.90
11284;DHT22;5698;47.332;11.180;2023-07-29T09:27:51;18.80;99.90
11284;DHT22;5698;47.332;11.180;2023-07-29T09:30:18;19.00;99.90
11284;DHT22;5698;47.332;11.180;2023-07-29T09:32:45;19.20;99.90
11284;DHT22;5698;47.332;11.180;2023-07-29T09:35:13;19.40;99.90
11284;DHT22;5698;47.332;11.180;2023-07-29T09:37:40;19.70;99.90
11284;DHT22;5698;47.332;11.180;2023-07-29T09:40:14;19.90;99.90
11284;DHT22;5698;47.332;11.180;2023-07-29T09:42:48;20.00;99.90
11284;DHT22;5698;47.332;11.180;2023-07-29T09:45:20;20.20;99.90
11284;DHT22;5698;47.332;11.180;2023-07-29T09:47:48;20.40;99.90
11284;DHT22;5698;47.332;11.180;2023-07-29T09:50:15;20.60;99.90
11284;DHT22;5698;47.332;11.180;2023-07-29T09:52:43;20.80;99.90
11284;DHT22;5698;47.332;11.180;2023-07-29T09:55:12;21.00;99.90
11284;DHT22;5698;47.332;11.180;2023-07-29T09:57:40;21.20;99.90
11284;DHT22;5698;47.332;11.180;2023-07-29T10:00:10;21.30;99.90
11284;DHT22;5698;47.332;11.180;2023-07-29T10:02:38;21.40;99.90
11284;DHT22;5698;47.332;11.180;2023-07-29T10:05:06;21.40;99.90
11284;DHT22;5698;47.332;11.180;2023-07-29T10:07:34;21.50;99.90
11284;DHT22;5698;47.332;11.180;2023-07-29T10:10:04;21.60;99.90
11284;DHT22;5698;47.332;11.180;2023-07-29T10:12:34;21.70;99.90
11284;DHT22;5698;47.332;11.180;2023-07-29T10:15:03;21.70;99.90
11284;DHT22;5698;47.332;11.180;2023-07-29T10:17:30;21.90;99.90
11284;DHT22;5698;47.332;11.180;2023-07-29T10:20:00;22.10;99.90
11284;DHT22;5698;47.332;11.180;2023-07-29T10:22:28;22.20;99.90
11284;DHT22;5698;47.332;11.180;2023-07-29T10:25:03;22.20;99.90
11284;DHT22;5698;47.332;11.180;2023-07-29T10:27:35;22.30;99.90
11284;DHT22;5698;47.332;11.180;2023-07-29T10:30:05;22.30;99.90
11284;DHT22;5698;47.332;11.180;2023-07-29T10:32:33;22.30;99.90
11284;DHT22;5698;47.332;11.180;2023-07-29T10:35:00;22.20;99.90
11284;DHT22;5698;47.332;11.180;2023-07-29T10:37:27;22.20;99.90
11284;DHT22;5698;47.332;11.180;2023-07-29T10:39:55;22.40;99.90
11284;DHT22;5698;47.332;11.180;2023-07-29T10:42:22;22.50;99.90
11284;DHT22;5698;47.332;11.180;2023-07-29T10:44:51;22.50;99.90
11284;DHT22;5698;47.332;11.180;2023-07-29T10:47:20;22.50;99.90
11284;DHT22;5698;47.332;11.180;2023-07-29T10:49:50;22.60;99.90
11284;DHT22;5698;47.332;11.180;2023-07-29T10:52:28;22.60;99.90
11284;DHT22;5698;47.332;11.180;2023-07-29T10:54:55;22.60;99.90
11284;DHT22;5698;47.332;11.180;2023-07-29T10:57:31;22.70;99.90
11284;DHT22;5698;47.332;11.180;2023-07-29T11:00:01;22.80;99.90
11284;DHT22;5698;47.332;11.180;2023-07-29T11:02:30;22.80;99.90
11284;DHT22;5698;47.332;11.180;2023-07-29T11:04:57;22.90;99.90
11284;DHT22;5698;47.332;11.180;2023-07-29T11:07:26;22.90;99.90
11284;DHT22;5698;47.332;11.180;2023-07-29T11:09:58;23.10;99.90
11284;DHT22;5698;47.332;11.180;2023-07-29T11:12:38;23.30;99.90
11284;DHT22;5698;47.332;11.180;2023-07-29T11:15:21;23.50;99.90
11284;DHT22;5698;47.332;11.180;2023-07-29T11:17:49;23.70;99.90
11284;DHT22;5698;47.332;11.180;2023-07-29T11:20:17;23.90;99.90
11284;DHT22;5698;47.332;11.180;2023-07-29T11:22:44;24.10;99.90
11284;DHT22;5698;47.332;11.180;2023-07-29T11:25:13;24.20;99.90
11284;DHT22;5698;47.332;11.180;2023-07-29T11:27:40;24.30;99.90
11284;DHT22;5698;47.332;11.180;2023-07-29T11:30:09;24.30;99.90
11284;DHT22;5698;47.332;11.180;2023-07-29T11:32:40;24.30;99.90
11284;DHT22;5698;47.332;11.180;2023-07-29T11:35:08;24.30;99.90
11284;DHT22;5698;47.332;11.180;2023-07-29T11:37:37;24.30;98.70
11284;DHT22;5698;47.332;11.180;2023-07-29T11:40:05;24.30;99.20
11284;DHT22;5698;47.332;11.180;2023-07-29T11:42:33;24.40;99.90
11284;DHT22;5698;47.332;11.180;2023-07-29T11:45:00;24.50;99.90
11284;DHT22;5698;47.332;11.180;2023-07-29T11:47:29;24.70;99.90
11284;DHT22;5698;47.332;11.180;2023-07-29T11:49:59;24.80;98.30
11284;DHT22;5698;47.332;11.180;2023-07-29T11:52:27;24.90;99.50
11284;DHT22;5698;47.332;11.180;2023-07-29T11:54:54;24.90;98.70
11284;DHT22;5698;47.332;11.180;2023-07-29T11:57:21;24.90;99.10
11284;DHT22;5698;47.332;11.180;2023-07-29T11:59:50;24.90;98.60
11284;DHT22;5698;47.332;11.180;2023-07-29T12:02:17;24.90;98.50
11284;DHT22;5698;47.332;11.180;2023-07-29T12:04:47;24.70;98.50
11284;DHT22;5698;47.332;11.180;2023-07-29T12:07:17;24.70;99.00
11284;DHT22;5698;47.332;11.180;2023-07-29T12:09:45;24.70;97.90
11284;DHT22;5698;47.332;11.180;2023-07-29T12:12:12;24.90;98.00
11284;DHT22;5698;47.332;11.180;2023-07-29T12:14:44;25.10;97.30
11284;DHT22;5698;47.332;11.180;2023-07-29T12:17:11;25.20;96.70
11284;DHT22;5698;47.332;11.180;2023-07-29T12:19:39;25.20;96.50
11284;DHT22;5698;47.332;11.180;2023-07-29T12:22:08;25.30;96.10
11284;DHT22;5698;47.332;11.180;2023-07-29T12:24:38;25.40;96.00
11284;DHT22;5698;47.332;11.180;2023-07-29T12:27:09;25.50;95.80
11284;DHT22;5698;47.332;11.180;2023-07-29T12:29:40;25.50;95.70
11284;DHT22;5698;47.332;11.180;2023-07-29T12:32:08;25.70;95.80
11284;DHT22;5698;47.332;11.180;2023-07-29T12:34:36;25.90;94.30
11284;DHT22;5698;47.332;11.180;2023-07-29T12:37:05;26.10;93.90
11284;DHT22;5698;47.332;11.180;2023-07-29T12:39:34;26.50;93.40
11284;DHT22;5698;47.332;11.180;2023-07-29T12:42:03;26.70;92.80
11284;DHT22;5698;47.332;11.180;2023-07-29T12:44:31;26.80;93.60
11284;DHT22;5698;47.332;11.180;2023-07-29T12:46:59;26.80;92.30
11284;DHT22;5698;47.332;11.180;2023-07-29T12:49:26;27.10;91.60
11284;DHT22;5698;47.332;11.180;2023-07-29T12:51:54;27.30;91.80
11284;DHT22;5698;47.332;11.180;2023-07-29T12:54:21;27.30;91.70
11284;DHT22;5698;47.332;11.180;2023-07-29T12:56:47;27.30;93.20
11284;DHT22;5698;47.332;11.180;2023-07-29T12:59:16;27.30;92.60
11284;DHT22;5698;47.332;11.180;2023-07-29T13:01:43;27.40;91.50
11284;DHT22;5698;47.332;11.180;2023-07-29T13:04:10;27.30;92.40
11284;DHT22;5698;47.332;11.180;2023-07-29T13:06:37;27.20;92.40
11284;DHT22;5698;47.332;11.180;2023-07-29T13:09:04;27.10;92.60
11284;DHT22;5698;47.332;11.180;2023-07-29T13:11:31;27.00;92.30
11284;DHT22;5698;47.332;11.180;2023-07-29T13:13:59;26.80;92.00
11284;DHT22;5698;47.332;11.180;2023-07-29T13:16:28;26.50;92.70
11284;DHT22;5698;47.332;11.180;2023-07-29T13:18:55;26.30;93.10
11284;DHT22;5698;47.332;11.180;2023-07-29T13:21:22;26.10;93.30
11284;DHT22;5698;47.332;11.180;2023-07-29T13:23:49;26.00;93.70
11284;DHT22;5698;47.332;11.180;2023-07-29T13:26:16;26.00;93.40
11284;DHT22;5698;47.332;11.180;2023-07-29T13:28:43;25.90;93.30
11284;DHT22;5698;47.332;11.180;2023-07-29T13:31:10;25.80;93.30
11284;DHT22;5698;47.332;11.180;2023-07-29T13:33:39;25.70;93.30
11284;DHT22;5698;47.332;11.180;2023-07-29T13:36:06;25.60;93.70
11284;DHT22;5698;47.332;11.180;2023-07-29T13:38:34;25.30;94.30
11284;DHT22;5698;47.332;11.180;2023-07-29T13:41:01;25.00;95.10
11284;DHT22;5698;47.332;11.180;2023-07-29T13:43:28;24.60;96.10
11284;DHT22;5698;47.332;11.180;2023-07-29T13:45:55;24.30;97.80
11284;DHT22;5698;47.332;11.180;2023-07-29T13:48:22;24.00;98.20
11284;DHT22;5698;47.332;11.180;2023-07-29T13:50:51;23.80;97.80
11284;DHT22;5698;47.332;11.180;2023-07-29T13:53:17;23.60;98.80
11284;DHT22;5698;47.332;11.180;2023-07-29T13:55:45;23.00;99.90
11284;DHT22;5698;47.332;11.180;2023-07-29T13:58:11;22.50;99.90
11284;DHT22;5698;47.332;11.180;2023-07-29T14:00:39;21.80;99.90
11284;DHT22;5698;47.332;11.180;2023-07-29T14:03:05;21.50;99.90
11284;DHT22;5698;47.332;11.180;2023-07-29T14:05:32;20.90;99.90
11284;DHT22;5698;47.332;11.180;2023-07-29T14:08:01;20.30;99.90
11284;DHT22;5698;47.332;11.180;2023-07-29T14:10:28;20.20;99.90
11284;DHT22;5698;47.332;11.180;2023-07-29T14:12:54;19.80;99.90
11284;DHT22;5698;47.332;11.180;2023-07-29T14:15:21;19.40;99.90
11284;DHT22;5698;47.332;11.180;2023-07-29T14:17:48;19.30;99.90
11284;DHT22;5698;47.332;11.180;2023-07-29T14:20:15;19.30;99.90
11284;DHT22;5698;47.332;11.180;2023-07-29T14:22:42;19.50;99.90
11284;DHT22;5698;47.332;11.180;2023-07-29T14:25:11;19.30;99.90
11284;DHT22;5698;47.332;11.180;2023-07-29T14:27:38;18.90;99.90
11284;DHT22;5698;47.332;11.180;2023-07-29T14:30:06;18.80;99.90
11284;DHT22;5698;47.332;11.180;2023-07-29T14:32:33;18.70;99.90
11284;DHT22;5698;47.332;11.180;2023-07-29T14:35:00;18.30;99.90
11284;DHT22;5698;47.332;11.180;2023-07-29T14:37:29;18.10;99.90
11284;DHT22;5698;47.332;11.180;2023-07-29T14:39:56;18.10;99.90
11284;DHT22;5698;47.332;11.180;2023-07-29T14:42:25;18.20;99.90
11284;DHT22;5698;47.332;11.180;2023-07-29T14:44:52;18.40;99.90
11284;DHT22;5698;47.332;11.180;2023-07-29T14:47:19;18.50;99.90
11284;DHT22;5698;47.332;11.180;2023-07-29T14:49:46;18.50;99.90
11284;DHT22;5698;47.332;11.180;2023-07-29T14:52:13;18.60;99.90
11284;DHT22;5698;47.332;11.180;2023-07-29T14:54:40;18.40;99.90
11284;DHT22;5698;47.332;11.180;2023-07-29T14:57:07;18.30;99.90
11284;DHT22;5698;47.332;11.180;2023-07-29T14:59:35;18.10;99.90
11284;DHT22;5698;47.332;11.180;2023-07-29T15:02:02;17.90;99.90
11284;DHT22;5698;47.332;11.180;2023-07-29T15:04:29;17.70;99.90
11284;DHT22;5698;47.332;11.180;2023-07-29T15:06:56;17.40;99.90
11284;DHT22;5698;47.332;11.180;2023-07-29T15:09:24;17.20;99.90
11284;DHT22;5698;47.332;11.180;2023-07-29T15:11:51;16.90;99.90
11284;DHT22;5698;47.332;11.180;2023-07-29T15:14:18;16.70;99.90
11284;DHT22;5698;47.332;11.180;2023-07-29T15:16:46;16.50;99.90
11284;DHT22;5698;47.332;11.180;2023-07-29T15:19:13;16.40;99.90
11284;DHT22;5698;47.332;11.180;2023-07-29T15:21:40;16.30;99.90
11284;DHT22;5698;47.332;11.180;2023-07-29T15:24:07;16.00;99.90
11284;DHT22;5698;47.332;11.180;2023-07-29T15:26:34;16.00;99.90
11284;DHT22;5698;47.332;11.180;2023-07-29T15:29:01;15.80;99.90
11284;DHT22;5698;47.332;11.180;2023-07-29T15:31:28;15.80;99.90
11284;DHT22;5698;47.332;11.180;2023-07-29T15:33:57;15.70;99.90